sensor_id;sensor_type;location;lat;lon;timestamp;P1;durP1;ratioP1;P2;durP2;ratioP2
24216;SDS011;12356;49.386;8.688;2023-06-22T00:00:58;5.20;;;4.10;;
24216;SDS011;12356;49.386;8.688;2023-06-22T00:03:29;5.15;;;4.20;;
24216;SDS011;12356;49.386;8.688;2023-06-22T00:05:59;6.60;;;4.15;;
24216;SDS011;12356;49.386;8.688;2023-06-22T00:08:30;5.95;;;4.10;;
24216;SDS011;12356;49.386;8.688;2023-06-22T00:11:00;8.85;;;4.40;;
24216;SDS011;12356;49.386;8.688;2023-06-22T00:13:31;7.70;;;4.72;;
24216;SDS011;12356;49.386;8.688;2023-06-22T00:16:01;7.18;;;4.50;;
24216;SDS011;12356;49.386;8.688;2023-06-22T00:18:32;4.68;;;4.18;;
24216;SDS011;12356;49.386;8.688;2023-06-22T00:21:09;7.35;;;4.28;;
24216;SDS011;12356;49.386;8.688;2023-06-22T00:23:39;4.85;;;4.25;;
24216;SDS011;12356;49.386;8.688;2023-06-22T00:26:11;7.20;;;3.90;;
24216;SDS011;12356;49.386;8.688;2023-06-22T00:28:41;5.30;;;4.25;;
24216;SDS011;12356;49.386;8.688;2023-06-22T00:31:12;5.43;;;4.22;;
24216;SDS011;12356;49.386;8.688;2023-06-22T00:33:43;5.68;;;4.20;;
24216;SDS011;12356;49.386;8.688;2023-06-22T00:36:14;7.82;;;4.57;;
24216;SDS011;12356;49.386;8.688;2023-06-22T00:38:46;7.30;;;4.70;;
24216;SDS011;12356;49.386;8.688;2023-06-22T00:41:17;7.55;;;4.30;;
24216;SDS011;12356;49.386;8.688;2023-06-22T00:43:48;8.55;;;4.32;;
24216;SDS011;12356;49.386;8.688;2023-06-22T00:46:18;9.00;;;4.20;;
24216;SDS011;12356;49.386;8.688;2023-06-22T00:48:49;4.53;;;4.10;;
24216;SDS011;12356;49.386;8.688;2023-06-22T00:51:21;6.28;;;4.80;;
24216;SDS011;12356;49.386;8.688;2023-06-22T00:56:24;7.60;;;4.90;;
24216;SDS011;12356;49.386;8.688;2023-06-22T00:58:55;5.55;;;4.53;;
24216;SDS011;12356;49.386;8.688;2023-06-22T01:01:29;7.28;;;5.20;;
24216;SDS011;12356;49.386;8.688;2023-06-22T01:03:59;8.55;;;5.85;;
24216;SDS011;12356;49.386;8.688;2023-06-22T01:06:32;13.10;;;6.15;;
24216;SDS011;12356;49.386;8.688;2023-06-22T01:09:12;8.38;;;6.53;;
24216;SDS011;12356;49.386;8.688;2023-06-22T01:11:54;7.35;;;6.22;;
24216;SDS011;12356;49.386;8.688;2023-06-22T01:17:00;8.77;;;5.70;;
24216;SDS011;12356;49.386;8.688;2023-06-22T01:19:35;9.75;;;5.82;;
24216;SDS011;12356;49.386;8.688;2023-06-22T01:22:08;7.05;;;5.53;;
24216;SDS011;12356;49.386;8.688;2023-06-22T01:24:47;6.57;;;4.97;;
24216;SDS011;12356;49.386;8.688;2023-06-22T01:27:40;7.90;;;5.57;;
24216;SDS011;12356;49.386;8.688;2023-06-22T01:30:45;9.07;;;5.55;;
24216;SDS011;12356;49.386;8.688;2023-06-22T01:33:18;7.00;;;5.40;;
24216;SDS011;12356;49.386;8.688;2023-06-22T01:35:49;8.23;;;5.82;;
24216;SDS011;12356;49.386;8.688;2023-06-22T01:38:20;10.77;;;6.05;;
24216;SDS011;12356;49.386;8.688;2023-06-22T01:40:52;10.18;;;6.70;;
24216;SDS011;12356;49.386;8.688;2023-06-22T01:43:25;10.25;;;7.40;;
24216;SDS011;12356;49.386;8.688;2023-06-22T01:45:57;8.30;;;7.05;;
24216;SDS011;12356;49.386;8.688;2023-06-22T01:48:28;9.05;;;6.85;;
24216;SDS011;12356;49.386;8.688;2023-06-22T01:51:00;10.70;;;7.07;;
24216;SDS011;12356;49.386;8.688;2023-06-22T01:53:32;12.48;;;6.90;;
24216;SDS011;12356;49.386;8.688;2023-06-22T01:56:02;8.70;;;6.65;;
24216;SDS011;12356;49.386;8.688;2023-06-22T01:58:34;11.30;;;6.70;;
24216;SDS011;12356;49.386;8.688;2023-06-22T02:01:10;9.95;;;6.68;;
24216;SDS011;12356;49.386;8.688;2023-06-22T02:03:47;9.60;;;6.40;;
24216;SDS011;12356;49.386;8.688;2023-06-22T02:06:27;7.65;;;6.60;;
24216;SDS011;12356;49.386;8.688;2023-06-22T02:09:15;8.52;;;6.15;;
24216;SDS011;12356;49.386;8.688;2023-06-22T02:11:47;8.88;;;6.55;;
24216;SDS011;12356;49.386;8.688;2023-06-22T02:14:22;8.40;;;6.40;;
24216;SDS011;12356;49.386;8.688;2023-06-22T02:16:53;7.22;;;6.28;;
24216;SDS011;12356;49.386;8.688;2023-06-22T02:19:24;9.95;;;6.60;;
24216;SDS011;12356;49.386;8.688;2023-06-22T02:21:56;6.95;;;6.22;;
24216;SDS011;12356;49.386;8.688;2023-06-22T02:24:27;7.03;;;5.85;;
24216;SDS011;12356;49.386;8.688;2023-06-22T02:27:01;8.32;;;6.57;;
24216;SDS011;12356;49.386;8.688;2023-06-22T02:29:32;9.00;;;6.27;;
24216;SDS011;12356;49.386;8.688;2023-06-22T02:32:03;8.93;;;5.75;;
24216;SDS011;12356;49.386;8.688;2023-06-22T02:34:34;8.13;;;6.30;;
24216;SDS011;12356;49.386;8.688;2023-06-22T02:37:06;7.88;;;5.85;;
24216;SDS011;12356;49.386;8.688;2023-06-22T02:39:37;7.63;;;6.20;;
24216;SDS011;12356;49.386;8.688;2023-06-22T02:42:07;10.15;;;6.45;;
24216;SDS011;12356;49.386;8.688;2023-06-22T02:44:40;9.65;;;6.10;;
24216;SDS011;12356;49.386;8.688;2023-06-22T02:47:11;7.70;;;6.03;;
24216;SDS011;12356;49.386;8.688;2023-06-22T02:49:42;7.13;;;5.78;;
24216;SDS011;12356;49.386;8.688;2023-06-22T02:52:14;8.52;;;6.15;;
24216;SDS011;12356;49.386;8.688;2023-06-22T02:54:45;9.30;;;6.20;;
24216;SDS011;12356;49.386;8.688;2023-06-22T02:57:16;7.65;;;6.03;;
24216;SDS011;12356;49.386;8.688;2023-06-22T02:59:46;8.75;;;6.07;;
24216;SDS011;12356;49.386;8.688;2023-06-22T03:02:17;9.60;;;6.00;;
24216;SDS011;12356;49.386;8.688;2023-06-22T03:04:48;7.32;;;6.10;;
24216;SDS011;12356;49.386;8.688;2023-06-22T03:07:21;8.73;;;6.57;;
24216;SDS011;12356;49.386;8.688;2023-06-22T03:09:52;7.57;;;6.07;;
24216;SDS011;12356;49.386;8.688;2023-06-22T03:12:23;10.05;;;6.38;;
24216;SDS011;12356;49.386;8.688;2023-06-22T03:14:53;8.00;;;5.70;;
24216;SDS011;12356;49.386;8.688;2023-06-22T03:17:24;7.53;;;5.55;;
24216;SDS011;12356;49.386;8.688;2023-06-22T03:19:55;9.63;;;6.40;;
24216;SDS011;12356;49.386;8.688;2023-06-22T03:22:25;9.70;;;6.10;;
24216;SDS011;12356;49.386;8.688;2023-06-22T03:24:56;7.15;;;6.10;;
24216;SDS011;12356;49.386;8.688;2023-06-22T03:27:26;8.27;;;6.30;;
24216;SDS011;12356;49.386;8.688;2023-06-22T03:29:57;8.45;;;6.55;;
24216;SDS011;12356;49.386;8.688;2023-06-22T03:32:28;8.63;;;6.15;;
24216;SDS011;12356;49.386;8.688;2023-06-22T03:34:58;9.13;;;6.25;;
24216;SDS011;12356;49.386;8.688;2023-06-22T03:37:29;7.50;;;5.80;;
24216;SDS011;12356;49.386;8.688;2023-06-22T03:39:59;8.57;;;6.25;;
24216;SDS011;12356;49.386;8.688;2023-06-22T03:42:30;8.70;;;6.40;;
24216;SDS011;12356;49.386;8.688;2023-06-22T03:45:00;10.48;;;6.60;;
24216;SDS011;12356;49.386;8.688;2023-06-22T03:47:32;10.10;;;6.55;;
24216;SDS011;12356;49.386;8.688;2023-06-22T03:50:03;7.63;;;6.40;;
24216;SDS011;12356;49.386;8.688;2023-06-22T03:52:34;9.60;;;6.47;;
24216;SDS011;12356;49.386;8.688;2023-06-22T03:55:05;8.27;;;6.50;;
24216;SDS011;12356;49.386;8.688;2023-06-22T03:57:36;8.00;;;6.33;;
24216;SDS011;12356;49.386;8.688;2023-06-22T04:00:07;8.63;;;6.32;;
24216;SDS011;12356;49.386;8.688;2023-06-22T04:02:38;11.05;;;6.72;;
24216;SDS011;12356;49.386;8.688;2023-06-22T04:05:09;8.73;;;6.68;;
24216;SDS011;12356;49.386;8.688;2023-06-22T04:07:40;10.55;;;6.70;;
24216;SDS011;12356;49.386;8.688;2023-06-22T04:10:10;7.93;;;6.32;;
24216;SDS011;12356;49.386;8.688;2023-06-22T04:12:41;10.25;;;6.30;;
24216;SDS011;12356;49.386;8.688;2023-06-22T04:15:11;7.50;;;6.03;;
24216;SDS011;12356;49.386;8.688;2023-06-22T04:17:42;9.02;;;6.70;;
24216;SDS011;12356;49.386;8.688;2023-06-22T04:20:12;9.90;;;6.30;;
24216;SDS011;12356;49.386;8.688;2023-06-22T04:22:43;8.73;;;6.57;;
24216;SDS011;12356;49.386;8.688;2023-06-22T04:25:13;12.85;;;7.00;;
24216;SDS011;12356;49.386;8.688;2023-06-22T04:27:44;9.48;;;6.57;;
24216;SDS011;12356;49.386;8.688;2023-06-22T04:30:15;8.20;;;6.40;;
24216;SDS011;12356;49.386;8.688;2023-06-22T04:32:46;8.85;;;6.45;;
24216;SDS011;12356;49.386;8.688;2023-06-22T04:35:26;7.68;;;6.18;;
24216;SDS011;12356;49.386;8.688;2023-06-22T04:37:58;10.45;;;6.75;;
24216;SDS011;12356;49.386;8.688;2023-06-22T04:40:28;7.40;;;6.35;;
24216;SDS011;12356;49.386;8.688;2023-06-22T04:42:59;8.68;;;6.60;;
24216;SDS011;12356;49.386;8.688;2023-06-22T04:45:32;6.75;;;6.03;;
24216;SDS011;12356;49.386;8.688;2023-06-22T04:48:04;7.47;;;6.68;;
24216;SDS011;12356;49.386;8.688;2023-06-22T04:50:38;7.82;;;6.00;;
24216;SDS011;12356;49.386;8.688;2023-06-22T04:53:09;7.43;;;5.80;;
24216;SDS011;12356;49.386;8.688;2023-06-22T04:55:42;6.55;;;5.38;;
24216;SDS011;12356;49.386;8.688;2023-06-22T04:58:15;7.68;;;6.10;;
24216;SDS011;12356;49.386;8.688;2023-06-22T05:00:46;6.88;;;5.35;;
24216;SDS011;12356;49.386;8.688;2023-06-22T05:03:17;8.82;;;5.63;;
24216;SDS011;12356;49.386;8.688;2023-06-22T05:05:48;6.05;;;5.18;;
24216;SDS011;12356;49.386;8.688;2023-06-22T05:08:19;8.20;;;5.38;;
24216;SDS011;12356;49.386;8.688;2023-06-22T05:10:49;12.48;;;6.03;;
24216;SDS011;12356;49.386;8.688;2023-06-22T05:13:20;9.05;;;6.07;;
24216;SDS011;12356;49.386;8.688;2023-06-22T05:15:51;6.95;;;5.85;;
24216;SDS011;12356;49.386;8.688;2023-06-22T05:18:22;7.47;;;5.30;;
24216;SDS011;12356;49.386;8.688;2023-06-22T05:20:53;8.80;;;5.55;;
24216;SDS011;12356;49.386;8.688;2023-06-22T05:23:23;5.72;;;5.13;;
24216;SDS011;12356;49.386;8.688;2023-06-22T05:25:54;8.10;;;5.60;;
24216;SDS011;12356;49.386;8.688;2023-06-22T05:28:27;7.97;;;5.80;;
24216;SDS011;12356;49.386;8.688;2023-06-22T05:30:58;7.90;;;5.85;;
24216;SDS011;12356;49.386;8.688;2023-06-22T05:33:28;6.78;;;5.28;;
24216;SDS011;12356;49.386;8.688;2023-06-22T05:35:59;6.70;;;5.55;;
24216;SDS011;12356;49.386;8.688;2023-06-22T05:38:29;7.93;;;5.50;;
24216;SDS011;12356;49.386;8.688;2023-06-22T05:41:00;7.15;;;5.78;;
24216;SDS011;12356;49.386;8.688;2023-06-22T05:43:30;7.95;;;6.10;;
24216;SDS011;12356;49.386;8.688;2023-06-22T05:46:01;8.50;;;5.50;;
24216;SDS011;12356;49.386;8.688;2023-06-22T05:48:32;6.97;;;5.65;;
24216;SDS011;12356;49.386;8.688;2023-06-22T05:51:02;6.10;;;5.50;;
24216;SDS011;12356;49.386;8.688;2023-06-22T05:53:33;9.77;;;5.35;;
24216;SDS011;12356;49.386;8.688;2023-06-22T05:56:03;8.38;;;5.60;;
24216;SDS011;12356;49.386;8.688;2023-06-22T05:58:35;6.68;;;5.55;;
24216;SDS011;12356;49.386;8.688;2023-06-22T06:01:05;8.07;;;5.93;;
24216;SDS011;12356;49.386;8.688;2023-06-22T06:03:36;8.48;;;5.43;;
24216;SDS011;12356;49.386;8.688;2023-06-22T06:06:11;8.13;;;5.75;;
24216;SDS011;12356;49.386;8.688;2023-06-22T06:08:42;9.02;;;5.60;;
24216;SDS011;12356;49.386;8.688;2023-06-22T06:11:12;6.78;;;5.70;;
24216;SDS011;12356;49.386;8.688;2023-06-22T06:13:43;7.60;;;5.32;;
24216;SDS011;12356;49.386;8.688;2023-06-22T06:16:13;8.45;;;5.63;;
24216;SDS011;12356;49.386;8.688;2023-06-22T06:18:44;9.20;;;5.40;;
24216;SDS011;12356;49.386;8.688;2023-06-22T06:21:15;8.40;;;5.80;;
24216;SDS011;12356;49.386;8.688;2023-06-22T06:23:45;6.65;;;5.72;;
24216;SDS011;12356;49.386;8.688;2023-06-22T06:26:17;7.47;;;5.70;;
24216;SDS011;12356;49.386;8.688;2023-06-22T06:28:47;7.20;;;5.75;;
24216;SDS011;12356;49.386;8.688;2023-06-22T06:31:18;8.57;;;5.95;;
24216;SDS011;12356;49.386;8.688;2023-06-22T06:33:48;7.28;;;5.63;;
24216;SDS011;12356;49.386;8.688;2023-06-22T06:36:19;6.28;;;5.68;;
24216;SDS011;12356;49.386;8.688;2023-06-22T06:38:50;9.10;;;6.50;;
24216;SDS011;12356;49.386;8.688;2023-06-22T06:41:20;7.43;;;5.97;;
24216;SDS011;12356;49.386;8.688;2023-06-22T06:43:51;7.68;;;6.28;;
24216;SDS011;12356;49.386;8.688;2023-06-22T06:46:21;8.95;;;5.93;;
24216;SDS011;12356;49.386;8.688;2023-06-22T06:48:52;9.10;;;6.25;;
24216;SDS011;12356;49.386;8.688;2023-06-22T06:51:23;8.13;;;6.25;;
24216;SDS011;12356;49.386;8.688;2023-06-22T06:53:53;8.48;;;6.03;;
24216;SDS011;12356;49.386;8.688;2023-06-22T06:56:24;8.23;;;5.70;;
24216;SDS011;12356;49.386;8.688;2023-06-22T06:58:54;7.63;;;5.80;;
24216;SDS011;12356;49.386;8.688;2023-06-22T07:01:25;8.75;;;5.80;;
24216;SDS011;12356;49.386;8.688;2023-06-22T07:03:56;7.93;;;5.88;;
24216;SDS011;12356;49.386;8.688;2023-06-22T07:06:26;7.47;;;5.57;;
24216;SDS011;12356;49.386;8.688;2023-06-22T07:08:59;8.60;;;5.75;;
24216;SDS011;12356;49.386;8.688;2023-06-22T07:11:30;8.73;;;5.88;;
24216;SDS011;12356;49.386;8.688;2023-06-22T07:14:01;6.32;;;5.60;;
24216;SDS011;12356;49.386;8.688;2023-06-22T07:16:31;9.60;;;5.63;;
24216;SDS011;12356;49.386;8.688;2023-06-22T07:19:02;7.13;;;5.85;;
24216;SDS011;12356;49.386;8.688;2023-06-22T07:21:33;8.77;;;5.53;;
24216;SDS011;12356;49.386;8.688;2023-06-22T07:24:04;6.57;;;5.70;;
24216;SDS011;12356;49.386;8.688;2023-06-22T07:26:35;8.93;;;6.07;;
24216;SDS011;12356;49.386;8.688;2023-06-22T07:29:06;8.35;;;5.60;;
24216;SDS011;12356;49.386;8.688;2023-06-22T07:31:37;7.82;;;5.82;;
24216;SDS011;12356;49.386;8.688;2023-06-22T07:34:10;7.80;;;5.50;;
24216;SDS011;12356;49.386;8.688;2023-06-22T07:36:40;7.45;;;6.00;;
24216;SDS011;12356;49.386;8.688;2023-06-22T07:39:11;8.02;;;5.70;;
24216;SDS011;12356;49.386;8.688;2023-06-22T07:41:42;9.20;;;6.05;;
24216;SDS011;12356;49.386;8.688;2023-06-22T07:44:13;9.15;;;5.97;;
24216;SDS011;12356;49.386;8.688;2023-06-22T07:46:43;8.93;;;6.25;;
24216;SDS011;12356;49.386;8.688;2023-06-22T07:49:14;8.85;;;6.07;;
24216;SDS011;12356;49.386;8.688;2023-06-22T07:51:44;7.22;;;5.90;;
24216;SDS011;12356;49.386;8.688;2023-06-22T07:54:15;7.75;;;6.00;;
24216;SDS011;12356;49.386;8.688;2023-06-22T07:56:46;7.13;;;5.72;;
24216;SDS011;12356;49.386;8.688;2023-06-22T07:59:17;7.32;;;5.82;;
24216;SDS011;12356;49.386;8.688;2023-06-22T08:01:47;9.82;;;6.00;;
24216;SDS011;12356;49.386;8.688;2023-06-22T08:04:19;7.28;;;5.53;;
24216;SDS011;12356;49.386;8.688;2023-06-22T08:06:49;7.93;;;6.13;;
24216;SDS011;12356;49.386;8.688;2023-06-22T08:09:20;9.00;;;6.00;;
24216;SDS011;12356;49.386;8.688;2023-06-22T08:11:50;8.23;;;6.20;;
24216;SDS011;12356;49.386;8.688;2023-06-22T08:14:21;7.75;;;5.97;;
24216;SDS011;12356;49.386;8.688;2023-06-22T08:16:51;7.10;;;5.80;;
24216;SDS011;12356;49.386;8.688;2023-06-22T08:19:22;9.07;;;5.85;;
24216;SDS011;12356;49.386;8.688;2023-06-22T08:21:52;6.75;;;5.88;;
24216;SDS011;12356;49.386;8.688;2023-06-22T08:24:23;7.68;;;6.10;;
24216;SDS011;12356;49.386;8.688;2023-06-22T08:26:53;8.02;;;5.70;;
24216;SDS011;12356;49.386;8.688;2023-06-22T08:29:24;6.65;;;5.80;;
24216;SDS011;12356;49.386;8.688;2023-06-22T08:31:55;9.13;;;5.68;;
24216;SDS011;12356;49.386;8.688;2023-06-22T08:34:25;9.20;;;5.60;;
24216;SDS011;12356;49.386;8.688;2023-06-22T08:36:57;9.73;;;5.50;;
24216;SDS011;12356;49.386;8.688;2023-06-22T08:39:28;9.65;;;5.90;;
24216;SDS011;12356;49.386;8.688;2023-06-22T08:41:58;13.10;;;5.70;;
24216;SDS011;12356;49.386;8.688;2023-06-22T08:44:29;8.60;;;5.93;;
24216;SDS011;12356;49.386;8.688;2023-06-22T08:47:00;7.72;;;5.75;;
24216;SDS011;12356;49.386;8.688;2023-06-22T08:49:30;8.32;;;5.60;;
24216;SDS011;12356;49.386;8.688;2023-06-22T08:52:01;6.45;;;5.55;;
24216;SDS011;12356;49.386;8.688;2023-06-22T08:54:32;10.55;;;6.20;;
24216;SDS011;12356;49.386;8.688;2023-06-22T08:57:04;11.45;;;6.20;;
24216;SDS011;12356;49.386;8.688;2023-06-22T08:59:35;16.67;;;5.45;;
24216;SDS011;12356;49.386;8.688;2023-06-22T09:02:06;10.88;;;6.10;;
24216;SDS011;12356;49.386;8.688;2023-06-22T09:04:36;7.85;;;5.80;;
24216;SDS011;12356;49.386;8.688;2023-06-22T09:07:07;11.18;;;6.35;;
24216;SDS011;12356;49.386;8.688;2023-06-22T09:09:37;9.35;;;6.00;;
24216;SDS011;12356;49.386;8.688;2023-06-22T09:12:08;8.32;;;5.95;;
24216;SDS011;12356;49.386;8.688;2023-06-22T09:14:39;9.60;;;6.35;;
24216;SDS011;12356;49.386;8.688;2023-06-22T09:17:09;9.90;;;6.47;;
24216;SDS011;12356;49.386;8.688;2023-06-22T09:19:40;8.13;;;6.30;;
24216;SDS011;12356;49.386;8.688;2023-06-22T09:22:11;9.15;;;6.10;;
24216;SDS011;12356;49.386;8.688;2023-06-22T09:24:41;9.15;;;6.03;;
24216;SDS011;12356;49.386;8.688;2023-06-22T09:27:12;9.95;;;6.53;;
24216;SDS011;12356;49.386;8.688;2023-06-22T09:29:42;8.32;;;6.00;;
24216;SDS011;12356;49.386;8.688;2023-06-22T09:32:13;10.10;;;6.68;;
24216;SDS011;12356;49.386;8.688;2023-06-22T09:34:43;12.38;;;6.32;;
24216;SDS011;12356;49.386;8.688;2023-06-22T09:37:14;10.88;;;6.32;;
24216;SDS011;12356;49.386;8.688;2023-06-22T09:39:44;8.43;;;5.88;;
24216;SDS011;12356;49.386;8.688;2023-06-22T09:42:15;10.70;;;6.50;;
24216;SDS011;12356;49.386;8.688;2023-06-22T09:44:45;9.65;;;6.60;;
24216;SDS011;12356;49.386;8.688;2023-06-22T09:47:16;12.27;;;6.53;;
24216;SDS011;12356;49.386;8.688;2023-06-22T09:49:46;9.20;;;6.13;;
24216;SDS011;12356;49.386;8.688;2023-06-22T09:52:17;9.48;;;6.15;;
24216;SDS011;12356;49.386;8.688;2023-06-22T09:54:47;10.52;;;6.20;;
24216;SDS011;12356;49.386;8.688;2023-06-22T09:57:18;11.93;;;6.10;;
24216;SDS011;12356;49.386;8.688;2023-06-22T09:59:48;8.90;;;5.85;;
24216;SDS011;12356;49.386;8.688;2023-06-22T10:02:19;10.60;;;6.28;;
24216;SDS011;12356;49.386;8.688;2023-06-22T10:04:50;9.68;;;6.38;;
24216;SDS011;12356;49.386;8.688;2023-06-22T10:07:20;11.23;;;6.38;;
24216;SDS011;12356;49.386;8.688;2023-06-22T10:09:51;11.13;;;6.00;;
24216;SDS011;12356;49.386;8.688;2023-06-22T10:12:21;9.85;;;6.15;;
24216;SDS011;12356;49.386;8.688;2023-06-22T10:14:52;7.57;;;5.70;;
24216;SDS011;12356;49.386;8.688;2023-06-22T10:17:22;9.52;;;5.68;;
24216;SDS011;12356;49.386;8.688;2023-06-22T10:19:53;9.52;;;6.03;;
24216;SDS011;12356;49.386;8.688;2023-06-22T10:22:23;8.75;;;5.75;;
24216;SDS011;12356;49.386;8.688;2023-06-22T10:24:54;10.18;;;5.88;;
24216;SDS011;12356;49.386;8.688;2023-06-22T10:27:24;10.73;;;6.30;;
24216;SDS011;12356;49.386;8.688;2023-06-22T10:29:55;16.83;;;6.10;;
24216;SDS011;12356;49.386;8.688;2023-06-22T10:32:25;11.07;;;5.68;;
24216;SDS011;12356;49.386;8.688;2023-06-22T10:34:58;10.18;;;5.50;;
24216;SDS011;12356;49.386;8.688;2023-06-22T10:37:28;9.88;;;5.82;;
24216;SDS011;12356;49.386;8.688;2023-06-22T10:39:59;10.55;;;6.03;;
24216;SDS011;12356;49.386;8.688;2023-06-22T10:42:29;9.73;;;6.35;;
24216;SDS011;12356;49.386;8.688;2023-06-22T10:45:00;9.70;;;5.70;;
24216;SDS011;12356;49.386;8.688;2023-06-22T10:47:31;10.32;;;5.97;;
24216;SDS011;12356;49.386;8.688;2023-06-22T10:50:01;10.23;;;5.90;;
24216;SDS011;12356;49.386;8.688;2023-06-22T10:52:32;13.52;;;6.18;;
24216;SDS011;12356;49.386;8.688;2023-06-22T10:55:03;11.25;;;5.63;;
24216;SDS011;12356;49.386;8.688;2023-06-22T10:57:34;8.20;;;6.17;;
24216;SDS011;12356;49.386;8.688;2023-06-22T11:00:06;13.55;;;6.22;;
24216;SDS011;12356;49.386;8.688;2023-06-22T11:02:39;10.75;;;6.10;;
24216;SDS011;12356;49.386;8.688;2023-06-22T11:05:09;10.45;;;6.05;;
24216;SDS011;12356;49.386;8.688;2023-06-22T11:07:43;12.95;;;5.97;;
24216;SDS011;12356;49.386;8.688;2023-06-22T11:10:14;9.68;;;5.68;;
24216;SDS011;12356;49.386;8.688;2023-06-22T11:12:45;12.73;;;6.13;;
24216;SDS011;12356;49.386;8.688;2023-06-22T11:15:15;10.77;;;5.65;;
24216;SDS011;12356;49.386;8.688;2023-06-22T11:17:46;11.65;;;5.90;;
24216;SDS011;12356;49.386;8.688;2023-06-22T11:20:16;13.75;;;5.90;;
24216;SDS011;12356;49.386;8.688;2023-06-22T11:22:47;11.15;;;6.00;;
24216;SDS011;12356;49.386;8.688;2023-06-22T11:25:17;11.23;;;5.93;;
24216;SDS011;12356;49.386;8.688;2023-06-22T11:27:48;11.20;;;6.05;;
24216;SDS011;12356;49.386;8.688;2023-06-22T11:30:22;14.85;;;5.88;;
24216;SDS011;12356;49.386;8.688;2023-06-22T11:32:53;11.45;;;5.75;;
24216;SDS011;12356;49.386;8.688;2023-06-22T11:35:24;12.13;;;5.80;;
24216;SDS011;12356;49.386;8.688;2023-06-22T11:37:54;10.88;;;6.10;;
24216;SDS011;12356;49.386;8.688;2023-06-22T11:40:26;10.05;;;5.57;;
24216;SDS011;12356;49.386;8.688;2023-06-22T11:42:56;12.10;;;5.75;;
24216;SDS011;12356;49.386;8.688;2023-06-22T11:45:27;12.50;;;6.13;;
24216;SDS011;12356;49.386;8.688;2023-06-22T11:47:57;11.75;;;5.95;;
24216;SDS011;12356;49.386;8.688;2023-06-22T11:50:28;12.30;;;6.35;;
24216;SDS011;12356;49.386;8.688;2023-06-22T11:53:00;10.65;;;5.57;;
24216;SDS011;12356;49.386;8.688;2023-06-22T11:55:30;9.50;;;5.88;;
24216;SDS011;12356;49.386;8.688;2023-06-22T11:58:01;16.35;;;5.95;;
24216;SDS011;12356;49.386;8.688;2023-06-22T12:00:33;10.15;;;5.78;;
24216;SDS011;12356;49.386;8.688;2023-06-22T12:03:04;9.35;;;5.55;;
24216;SDS011;12356;49.386;8.688;2023-06-22T12:05:35;10.80;;;6.00;;
24216;SDS011;12356;49.386;8.688;2023-06-22T12:08:05;9.23;;;5.70;;
24216;SDS011;12356;49.386;8.688;2023-06-22T12:10:36;11.55;;;5.60;;
24216;SDS011;12356;49.386;8.688;2023-06-22T12:13:06;16.35;;;5.90;;
24216;SDS011;12356;49.386;8.688;2023-06-22T12:15:37;10.32;;;5.70;;
24216;SDS011;12356;49.386;8.688;2023-06-22T12:18:08;14.30;;;6.13;;
24216;SDS011;12356;49.386;8.688;2023-06-22T12:20:39;9.10;;;6.28;;
24216;SDS011;12356;49.386;8.688;2023-06-22T12:23:09;10.23;;;5.90;;
24216;SDS011;12356;49.386;8.688;2023-06-22T12:25:40;9.88;;;5.63;;
24216;SDS011;12356;49.386;8.688;2023-06-22T12:28:10;14.27;;;6.10;;
24216;SDS011;12356;49.386;8.688;2023-06-22T12:30:41;11.02;;;5.88;;
24216;SDS011;12356;49.386;8.688;2023-06-22T12:33:11;12.20;;;6.30;;
24216;SDS011;12356;49.386;8.688;2023-06-22T12:35:43;11.02;;;5.72;;
24216;SDS011;12356;49.386;8.688;2023-06-22T12:38:15;11.90;;;5.75;;
24216;SDS011;12356;49.386;8.688;2023-06-22T12:40:45;12.32;;;6.00;;
24216;SDS011;12356;49.386;8.688;2023-06-22T12:43:17;15.50;;;6.00;;
24216;SDS011;12356;49.386;8.688;2023-06-22T12:45:48;14.13;;;5.75;;
24216;SDS011;12356;49.386;8.688;2023-06-22T12:48:18;13.05;;;6.00;;
24216;SDS011;12356;49.386;8.688;2023-06-22T12:50:49;11.95;;;5.70;;
24216;SDS011;12356;49.386;8.688;2023-06-22T12:53:20;9.05;;;6.00;;
24216;SDS011;12356;49.386;8.688;2023-06-22T12:55:52;11.68;;;5.97;;
24216;SDS011;12356;49.386;8.688;2023-06-22T12:58:23;10.20;;;5.75;;
24216;SDS011;12356;49.386;8.688;2023-06-22T13:00:53;12.40;;;5.90;;
24216;SDS011;12356;49.386;8.688;2023-06-22T13:03:24;12.00;;;5.90;;
24216;SDS011;12356;49.386;8.688;2023-06-22T13:05:56;9.77;;;5.82;;
24216;SDS011;12356;49.386;8.688;2023-06-22T13:08:27;11.30;;;5.60;;
24216;SDS011;12356;49.386;8.688;2023-06-22T13:10:57;9.68;;;6.10;;
24216;SDS011;12356;49.386;8.688;2023-06-22T13:13:28;8.98;;;5.90;;
24216;SDS011;12356;49.386;8.688;2023-06-22T13:15:59;13.35;;;5.88;;
24216;SDS011;12356;49.386;8.688;2023-06-22T13:18:29;9.63;;;5.63;;
24216;SDS011;12356;49.386;8.688;2023-06-22T13:21:00;13.75;;;5.80;;
24216;SDS011;12356;49.386;8.688;2023-06-22T13:23:31;11.85;;;5.75;;
24216;SDS011;12356;49.386;8.688;2023-06-22T13:26:01;12.52;;;5.55;;
24216;SDS011;12356;49.386;8.688;2023-06-22T13:28:32;12.85;;;6.10;;
24216;SDS011;12356;49.386;8.688;2023-06-22T13:31:03;10.82;;;5.55;;
24216;SDS011;12356;49.386;8.688;2023-06-22T13:33:34;11.85;;;6.28;;
24216;SDS011;12356;49.386;8.688;2023-06-22T13:36:04;13.55;;;6.20;;
24216;SDS011;12356;49.386;8.688;2023-06-22T13:38:36;19.92;;;6.30;;
24216;SDS011;12356;49.386;8.688;2023-06-22T13:43:39;10.75;;;6.05;;
24216;SDS011;12356;49.386;8.688;2023-06-22T13:46:09;16.42;;;6.70;;
24216;SDS011;12356;49.386;8.688;2023-06-22T13:48:40;10.48;;;5.78;;
24216;SDS011;12356;49.386;8.688;2023-06-22T13:51:10;10.93;;;6.20;;
24216;SDS011;12356;49.386;8.688;2023-06-22T13:53:41;8.05;;;5.85;;
24216;SDS011;12356;49.386;8.688;2023-06-22T13:56:11;14.40;;;6.15;;
24216;SDS011;12356;49.386;8.688;2023-06-22T13:58:42;10.30;;;6.28;;
24216;SDS011;12356;49.386;8.688;2023-06-22T14:01:13;13.38;;;6.20;;
24216;SDS011;12356;49.386;8.688;2023-06-22T14:03:44;15.18;;;6.20;;
24216;SDS011;12356;49.386;8.688;2023-06-22T14:06:16;12.88;;;6.57;;
24216;SDS011;12356;49.386;8.688;2023-06-22T14:08:47;12.43;;;6.90;;
24216;SDS011;12356;49.386;8.688;2023-06-22T14:11:18;13.02;;;6.00;;
24216;SDS011;12356;49.386;8.688;2023-06-22T14:13:48;18.02;;;6.75;;
24216;SDS011;12356;49.386;8.688;2023-06-22T14:16:19;16.13;;;6.82;;
24216;SDS011;12356;49.386;8.688;2023-06-22T14:18:49;12.30;;;6.38;;
24216;SDS011;12356;49.386;8.688;2023-06-22T14:21:20;15.00;;;6.60;;
24216;SDS011;12356;49.386;8.688;2023-06-22T14:23:50;11.68;;;6.18;;
24216;SDS011;12356;49.386;8.688;2023-06-22T14:26:21;12.27;;;6.72;;
24216;SDS011;12356;49.386;8.688;2023-06-22T14:28:52;12.70;;;6.50;;
24216;SDS011;12356;49.386;8.688;2023-06-22T14:31:23;10.10;;;6.65;;
24216;SDS011;12356;49.386;8.688;2023-06-22T14:33:53;15.80;;;6.85;;
24216;SDS011;12356;49.386;8.688;2023-06-22T14:36:24;13.18;;;6.63;;
24216;SDS011;12356;49.386;8.688;2023-06-22T14:38:54;14.80;;;6.22;;
24216;SDS011;12356;49.386;8.688;2023-06-22T14:41:25;13.75;;;6.57;;
24216;SDS011;12356;49.386;8.688;2023-06-22T14:43:56;12.95;;;6.80;;
24216;SDS011;12356;49.386;8.688;2023-06-22T14:46:26;13.32;;;6.50;;
24216;SDS011;12356;49.386;8.688;2023-06-22T14:48:57;10.90;;;6.53;;
24216;SDS011;12356;49.386;8.688;2023-06-22T14:51:27;10.95;;;7.10;;
24216;SDS011;12356;49.386;8.688;2023-06-22T14:53:58;15.32;;;6.72;;
24216;SDS011;12356;49.386;8.688;2023-06-22T14:56:29;13.65;;;6.63;;
24216;SDS011;12356;49.386;8.688;2023-06-22T14:58:59;12.50;;;6.70;;
24216;SDS011;12356;49.386;8.688;2023-06-22T15:01:30;13.50;;;7.28;;
24216;SDS011;12356;49.386;8.688;2023-06-22T15:04:00;11.30;;;6.90;;
24216;SDS011;12356;49.386;8.688;2023-06-22T15:06:31;11.57;;;6.45;;
24216;SDS011;12356;49.386;8.688;2023-06-22T15:09:01;13.93;;;7.45;;
24216;SDS011;12356;49.386;8.688;2023-06-22T15:11:32;14.15;;;7.20;;
24216;SDS011;12356;49.386;8.688;2023-06-22T15:14:03;16.92;;;7.22;;